Capitol Logistics 312


KSEA
Seattle-Tacoma International Airport
Seattle, Washington, US
KIAD
Washington Dulles International Airport
Dulles, Virginia, US

Route Details

Aircraft Information
Primary: Boeing 767-300BDSF
Backup: Not Available
Route Data
Distance: 20001nm
Sched. Duration: 5h 00m
Avg. Duration: 4h 56m (-44m)
Times Flown: 4
Recm'd Route: SEA NORMY J90 MWH HLN DPR MCW DBQ JOT J30 APE AIR J162 MGW GIBBZ2
Planned Altitude: 33,000ft
Origin Wx: KSEA 271658Z 12003KT 10SM SCT028 BKN037 08/05 A3042 RMK AO2 T00780050 $
Dest. Wx: KIAD 271730Z 00000KT 10SM OVC029 17/09 A3020 RMK AO2 T01670094
Notes:

Financial History
Total Freight: 373,064lbs
Average Load: 93,266lbs/flt
Fuel Used: 196,945lbs
Avg. Fuel Used: 49,236lbs/flt
Fuel Expense: $220,578
Avg. Fuel Expense: $55,145
Avg. Fuel Cost: $1.12/lbs
Total Gross Income: $507,329
Pilot Pay: $1,006
Total Expenses: $54,999
Total Revenue: $227,029
Average Revenue: $126,832.15